This is the latest recevied weather packets stored in our database for station/object KA1AL. If no packets are shown the sender has not sent any weather packets the latest 10 day(s).
| Time | Temp. | Humidity | Pressure | Rain* | Wind** | Luminosity | Snow |
|---|---|---|---|---|---|---|---|
| 1777715989 | 2.22° C | 83% | 1012 hPa | 0 mm | - | 16 W/m² | - |
| 1777715686 | 2.22° C | 82% | 1012 hPa | 0 mm | - | 10 W/m² | - |
| 1777715384 | 2.22° C | 82% | 1011.8 hPa | 0 mm | - | 9 W/m² | - |
| 1777715081 | 2.22° C | 81% | 1011.8 hPa | 0 mm | - | 8 W/m² | - |
| 1777714779 | 1.67° C | 82% | 1011.9 hPa | 0 mm | - | 5 W/m² | - |
| 1777714478 | 1.67° C | 82% | 1011.9 hPa | 0 mm | - | 1 W/m² | - |
| 1777714174 | 1.67° C | 84% | 1012.1 hPa | 0 mm | - | 1 W/m² | - |
| 1777713872 | 1.67° C | 85% | 1012 hPa | 0 mm | - | 0 W/m² | - |
| 1777713570 | 1.67° C | 86% | 1012.2 hPa | 0 mm | - | 0 W/m² | - |
| 1777713266 | 1.67° C | 83% | 1012.1 hPa | 0 mm | - | 0 W/m² | - |
| 1777712963 | 1.67° C | 81% | 1011.9 hPa | 0 mm | - | 0 W/m² | - |
| 1777712660 | 1.67° C | 80% | 1011.9 hPa | 0 mm | - | 0 W/m² | - |
| 1777712356 | 1.67° C | 80% | 1011.7 hPa | 0 mm | - | 0 W/m² | - |
| 1777712053 | 2.22° C | 80% | 1011.7 hPa | 0 mm | - | 0 W/m² | - |
| 1777711750 | 2.22° C | 79% | 1011.5 hPa | 0 mm | - | 0 W/m² | - |
| 1777711446 | 2.22° C | 79% | 1011.3 hPa | 0 mm | - | 0 W/m² | - |
| 1777711141 | 1.67° C | 80% | 1011.4 hPa | 0 mm | - | 0 W/m² | - |
| 1777710838 | 2.22° C | 80% | 1011.4 hPa | 0 mm | - | 0 W/m² | - |
| 1777710536 | 2.22° C | 79% | 1011.2 hPa | 0 mm | - | 0 W/m² | - |
| 1777710233 | 2.22° C | 79% | 1011.3 hPa | 0 mm | - | 0 W/m² | - |
| 1777709930 | 2.22° C | 80% | 1011 hPa | 0 mm | - | 0 W/m² | - |
| 1777709628 | 2.22° C | 80% | 1011.1 hPa | 0 mm | - | 0 W/m² | - |
| 1777709324 | 2.22° C | 82% | 1011.3 hPa | 0 mm | - | 0 W/m² | - |
| 1777709022 | 2.22° C | 81% | 1011.1 hPa | 0 mm | - | 0 W/m² | - |
| 1777708719 | 2.78° C | 80% | 1011 hPa | 0 mm | - | 0 W/m² | - |
* Rain latest hour (hover to see other rain measurements)
** Current wind speed in m/s (hover to see current wind gust speed)